createdAt,value
2022-08-22T00:00:15.324Z,9.73
2022-08-22T00:02:44.326Z,14.30
2022-08-22T00:02:47.571Z,6.10
2022-08-22T00:02:59.712Z,7.75
2022-08-22T00:05:46.389Z,10.90
2022-08-22T00:08:18.621Z,7.55
2022-08-22T00:11:01.639Z,13.68
2022-08-22T00:13:43.313Z,12.18
2022-08-22T00:16:27.609Z,6.95
2022-08-22T00:19:03.405Z,8.25
2022-08-22T00:21:40.461Z,6.65
2022-08-22T00:24:25.880Z,10.23
2022-08-22T00:27:01.051Z,13.82
2022-08-22T00:29:35.452Z,9.20
2022-08-22T00:32:06.264Z,11.50
2022-08-22T00:34:36.333Z,8.68
2022-08-22T00:37:24.295Z,12.70
2022-08-22T00:39:55.473Z,10.07
2022-08-22T00:42:59.198Z,8.27
2022-08-22T00:45:50.771Z,12.73
2022-08-22T00:48:28.025Z,8.35
2022-08-22T00:51:20.869Z,11.50
2022-08-22T00:54:00.950Z,7.63
2022-08-22T00:56:57.600Z,8.68
2022-08-22T00:59:46.430Z,10.95
2022-08-22T01:02:18.728Z,8.20
2022-08-22T01:05:16.050Z,8.60
2022-08-22T01:07:46.564Z,11.63
2022-08-22T01:10:31.261Z,11.00
2022-08-22T01:13:24.649Z,12.77
2022-08-22T01:15:53.446Z,9.07
2022-08-22T01:18:48.962Z,9.13
2022-08-22T01:21:43.131Z,9.10
2022-08-22T01:24:28.585Z,5.80
2022-08-22T01:27:16.329Z,9.05
2022-08-22T01:30:01.935Z,11.20
2022-08-22T01:33:04.904Z,10.18
2022-08-22T01:35:53.063Z,10.55
2022-08-22T01:38:57.404Z,8.80
2022-08-22T01:41:58.020Z,11.07
2022-08-22T01:44:30.083Z,9.27
2022-08-22T01:47:01.509Z,6.82
2022-08-22T01:49:35.859Z,9.90
2022-08-22T01:52:15.438Z,11.18
2022-08-22T01:55:11.987Z,9.82
2022-08-22T01:57:56.237Z,10.98
2022-08-22T02:00:35.165Z,9.30
2022-08-22T02:03:21.418Z,8.18
2022-08-22T02:05:58.819Z,9.02
2022-08-22T02:08:47.024Z,13.43
2022-08-22T02:11:50.620Z,14.70
2022-08-22T02:14:28.052Z,12.02
2022-08-22T02:17:07.943Z,9.38
2022-08-22T02:20:10.419Z,11.35
2022-08-22T02:22:44.411Z,11.00
2022-08-22T02:25:39.281Z,12.10
2022-08-22T02:28:13.381Z,12.50
2022-08-22T02:30:47.650Z,10.32
2022-08-22T02:33:42.939Z,13.60
2022-08-22T02:36:28.156Z,12.70
2022-08-22T02:39:04.470Z,10.23
2022-08-22T02:41:52.510Z,10.45
2022-08-22T02:44:31.635Z,11.45
2022-08-22T02:47:11.756Z,10.65
2022-08-22T02:50:01.423Z,12.18
2022-08-22T02:52:50.148Z,10.02
2022-08-22T02:55:33.552Z,11.77
2022-08-22T02:58:05.020Z,10.27
2022-08-22T03:00:52.156Z,12.73
2022-08-22T03:03:26.558Z,12.18
2022-08-22T03:06:01.342Z,15.05
2022-08-22T03:08:42.942Z,12.50
2022-08-22T03:11:27.045Z,11.15
2022-08-22T03:14:18.897Z,14.13
2022-08-22T03:16:54.838Z,13.13
2022-08-22T03:19:27.946Z,11.50
2022-08-22T03:21:58.561Z,15.60
2022-08-22T03:24:38.572Z,11.55
2022-08-22T03:27:32.744Z,10.15
2022-08-22T03:30:19.010Z,9.55
2022-08-22T03:32:56.252Z,12.95
2022-08-22T03:35:39.318Z,11.02
2022-08-22T03:38:17.534Z,11.25
2022-08-22T03:41:11.122Z,9.98
2022-08-22T03:44:08.476Z,12.05
2022-08-22T03:46:52.994Z,14.27
2022-08-22T03:49:43.327Z,10.93
2022-08-22T03:52:18.755Z,14.80
2022-08-22T03:55:09.745Z,12.77
2022-08-22T03:58:10.262Z,13.55
2022-08-22T04:01:06.461Z,11.57
2022-08-22T04:03:55.085Z,11.75
2022-08-22T04:06:35.820Z,8.60
2022-08-22T04:09:40.142Z,12.20
2022-08-22T04:12:31.890Z,12.18
2022-08-22T04:15:07.534Z,14.88
2022-08-22T04:20:41.075Z,12.80
2022-08-22T04:23:46.214Z,14.65
2022-08-22T04:26:40.476Z,10.20
2022-08-22T04:29:19.654Z,14.00
2022-08-22T04:32:05.576Z,13.98
2022-08-22T04:35:08.681Z,15.32
2022-08-22T04:37:50.203Z,11.65
2022-08-22T04:41:10.263Z,10.32
2022-08-22T04:43:38.790Z,12.10
2022-08-22T04:46:17.520Z,17.13
2022-08-22T04:49:12.056Z,13.02
2022-08-22T04:51:43.724Z,12.77
2022-08-22T04:54:22.671Z,13.05
2022-08-22T04:56:55.375Z,15.27
2022-08-22T04:59:22.470Z,14.55
2022-08-22T05:01:58.249Z,12.95
2022-08-22T05:04:34.811Z,14.57
2022-08-22T05:07:07.985Z,12.55
2022-08-22T05:09:37.924Z,12.82
2022-08-22T05:12:09.276Z,11.80
2022-08-22T05:14:47.485Z,12.38
2022-08-22T05:17:17.155Z,15.13
2022-08-22T05:19:46.632Z,11.48
2022-08-22T05:24:43.584Z,14.35
2022-08-22T05:27:12.292Z,13.75
2022-08-22T05:29:40.085Z,13.40
2022-08-22T05:32:08.285Z,12.18
2022-08-22T05:34:38.418Z,13.45
2022-08-22T05:37:12.089Z,16.38
2022-08-22T05:39:39.627Z,15.00
2022-08-22T05:42:07.011Z,12.65
2022-08-22T05:44:37.129Z,11.75
2022-08-22T05:47:18.003Z,12.70
2022-08-22T05:50:01.660Z,15.15
2022-08-22T05:52:53.123Z,19.00
2022-08-22T05:55:34.513Z,15.02
2022-08-22T05:58:39.064Z,14.27
2022-08-22T06:01:17.409Z,16.15
2022-08-22T06:03:50.671Z,13.43
2022-08-22T06:06:27.079Z,15.93
2022-08-22T06:09:08.034Z,13.57
2022-08-22T06:11:56.398Z,14.93
2022-08-22T06:14:36.690Z,15.50
2022-08-22T06:17:20.670Z,10.77
2022-08-22T06:19:49.758Z,13.88
2022-08-22T06:22:20.420Z,11.77
2022-08-22T06:24:47.135Z,15.15
2022-08-22T06:27:14.391Z,13.02
2022-08-22T06:29:44.112Z,13.18
2022-08-22T06:32:14.159Z,14.70
2022-08-22T06:34:42.253Z,13.68
2022-08-22T06:37:11.994Z,16.13
2022-08-22T06:39:41.207Z,13.52
2022-08-22T06:42:16.915Z,13.68
2022-08-22T06:45:05.667Z,13.98
2022-08-22T06:47:53.733Z,14.48
2022-08-22T06:50:25.264Z,13.95
2022-08-22T06:53:05.815Z,10.38
2022-08-22T06:55:32.631Z,11.00
2022-08-22T06:58:07.540Z,14.48
2022-08-22T07:00:34.689Z,9.57
2022-08-22T07:03:13.928Z,13.88
2022-08-22T07:05:41.091Z,16.17
2022-08-22T07:08:15.207Z,11.00
2022-08-22T07:10:43.574Z,18.85
2022-08-22T07:13:16.784Z,10.90
2022-08-22T07:15:43.578Z,15.63
2022-08-22T07:18:22.422Z,16.17
2022-08-22T07:21:00.552Z,17.40
2022-08-22T07:23:42.416Z,13.88
2022-08-22T07:26:12.388Z,12.60
2022-08-22T07:28:58.711Z,14.55
2022-08-22T07:31:30.218Z,16.17
2022-08-22T07:34:07.370Z,11.90
2022-08-22T07:39:29.759Z,13.93
2022-08-22T07:41:56.398Z,11.93
2022-08-22T07:44:24.080Z,9.95
2022-08-22T07:47:00.857Z,12.18
2022-08-22T07:49:40.911Z,13.30
2022-08-22T07:52:16.513Z,14.20
2022-08-22T07:54:52.010Z,12.82
2022-08-22T07:59:52.245Z,14.27
2022-08-22T08:02:19.089Z,13.38
2022-08-22T08:04:46.029Z,12.70
2022-08-22T08:07:14.337Z,17.88
2022-08-22T08:09:56.590Z,15.02
2022-08-22T08:12:34.023Z,17.02
2022-08-22T08:15:04.170Z,13.38
2022-08-22T08:17:32.382Z,17.88
2022-08-22T08:20:00.030Z,14.32
2022-08-22T08:22:26.872Z,13.23
2022-08-22T08:24:55.577Z,11.18
2022-08-22T08:27:24.091Z,15.27
2022-08-22T08:29:55.889Z,13.98
2022-08-22T08:32:27.172Z,16.45
2022-08-22T08:34:54.017Z,14.13
2022-08-22T08:37:22.837Z,12.93
2022-08-22T08:39:51.660Z,12.43
2022-08-22T08:42:29.321Z,12.85
2022-08-22T08:45:14.091Z,14.10
2022-08-22T08:48:07.287Z,15.43
2022-08-22T08:50:37.143Z,15.40
2022-08-22T08:53:33.137Z,16.42
2022-08-22T08:56:19.642Z,15.38
2022-08-22T08:58:53.244Z,17.92
2022-08-22T09:01:57.237Z,12.00
2022-08-22T09:04:35.724Z,14.25
2022-08-22T09:07:41.375Z,14.82
2022-08-22T09:10:29.866Z,13.50
2022-08-22T09:13:11.475Z,12.90
2022-08-22T09:16:11.576Z,16.02
2022-08-22T09:18:56.872Z,15.13
2022-08-22T09:21:36.528Z,12.55
2022-08-22T09:24:23.400Z,14.18
2022-08-22T09:27:00.346Z,12.95
2022-08-22T09:29:54.941Z,11.68
2022-08-22T09:32:43.998Z,16.52
2022-08-22T09:35:17.147Z,11.00
2022-08-22T09:37:57.968Z,12.65
2022-08-22T09:40:53.611Z,12.77
2022-08-22T09:43:24.494Z,13.43
2022-08-22T09:46:15.535Z,13.70
2022-08-22T09:49:02.187Z,11.27
2022-08-22T09:51:39.285Z,9.90
2022-08-22T09:54:16.890Z,11.95
2022-08-22T09:57:33.620Z,10.18
2022-08-22T10:00:13.287Z,8.27
2022-08-22T10:03:07.506Z,11.20
2022-08-22T10:05:40.592Z,13.77
2022-08-22T10:08:26.536Z,14.52
2022-08-22T10:10:53.379Z,8.63
2022-08-22T10:13:57.801Z,10.38
2022-08-22T10:16:47.221Z,8.85
2022-08-22T10:19:37.199Z,9.13
2022-08-22T10:22:24.574Z,11.38
2022-08-22T10:25:15.556Z,10.07
2022-08-22T10:27:48.759Z,9.68
2022-08-22T10:30:43.165Z,10.93
2022-08-22T10:33:25.891Z,12.65
2022-08-22T10:36:06.141Z,10.60
2022-08-22T10:38:46.938Z,9.95
2022-08-22T10:41:37.296Z,9.65
2022-08-22T10:44:14.446Z,10.60
2022-08-22T10:46:46.192Z,7.93
2022-08-22T10:49:20.228Z,9.02
2022-08-22T10:51:53.872Z,9.55
2022-08-22T10:54:41.144Z,8.25
2022-08-22T10:57:32.376Z,10.18
2022-08-22T11:00:22.517Z,9.05
2022-08-22T11:02:54.430Z,10.35
2022-08-22T11:05:40.172Z,7.20
2022-08-22T11:08:18.509Z,11.93
2022-08-22T11:11:00.314Z,8.38
2022-08-22T11:13:51.922Z,8.88
2022-08-22T11:16:43.244Z,9.23
2022-08-22T11:19:35.962Z,8.57
2022-08-22T11:22:05.632Z,8.40
2022-08-22T11:24:55.334Z,8.98
2022-08-22T11:27:50.305Z,11.35
2022-08-22T11:30:47.785Z,12.25
2022-08-22T11:33:46.248Z,9.20
2022-08-22T11:36:20.057Z,8.30
2022-08-22T11:39:03.142Z,8.85
2022-08-22T11:41:52.877Z,7.07
2022-08-22T11:44:28.199Z,8.88
2022-08-22T11:46:54.921Z,6.93
2022-08-22T11:49:59.293Z,7.28
2022-08-22T11:52:28.059Z,5.55
2022-08-22T11:55:07.347Z,6.55
2022-08-22T11:58:06.744Z,4.82
2022-08-22T12:01:02.606Z,5.53
2022-08-22T12:03:58.493Z,7.50
2022-08-22T12:06:44.198Z,5.90
2022-08-22T12:09:19.005Z,3.70
2022-08-22T12:12:19.556Z,5.50
2022-08-22T12:15:25.944Z,6.40
2022-08-22T12:18:21.185Z,5.35
2022-08-22T12:20:57.145Z,7.00
2022-08-22T12:24:06.128Z,6.65
2022-08-22T12:26:55.521Z,6.78
2022-08-22T12:30:12.903Z,4.88
2022-08-22T12:32:46.702Z,5.63
2022-08-22T12:35:51.175Z,6.85
2022-08-22T12:38:28.680Z,6.63
2022-08-22T12:41:27.668Z,6.78
2022-08-22T12:44:17.219Z,7.57
2022-08-22T12:47:13.345Z,7.22
2022-08-22T12:49:59.151Z,7.55
2022-08-22T12:52:58.240Z,9.07
2022-08-22T12:55:48.512Z,5.90
2022-08-22T12:58:29.445Z,6.38
2022-08-22T13:01:05.107Z,6.13
2022-08-22T13:03:35.683Z,7.80
2022-08-22T13:06:26.908Z,7.45
2022-08-22T13:08:53.629Z,4.68
2022-08-22T13:11:22.874Z,5.38
2022-08-22T13:13:56.397Z,6.53
2022-08-22T13:16:24.033Z,5.88
2022-08-22T13:18:56.187Z,7.07
2022-08-22T13:21:28.773Z,7.18
2022-08-22T13:24:05.566Z,6.95
2022-08-22T13:26:38.286Z,6.05
2022-08-22T13:29:25.616Z,10.18
2022-08-22T13:31:56.154Z,6.50
2022-08-22T13:34:33.216Z,5.65
2022-08-22T13:37:14.893Z,6.07
2022-08-22T13:39:43.811Z,8.85
2022-08-22T13:44:58.339Z,7.43
2022-08-22T13:47:27.534Z,7.63
2022-08-22T13:50:12.499Z,7.97
2022-08-22T13:52:58.584Z,7.93
2022-08-22T13:55:44.750Z,8.10
2022-08-22T13:58:24.956Z,6.97
2022-08-22T14:01:28.872Z,7.25
2022-08-22T14:04:00.615Z,6.50
2022-08-22T14:06:37.016Z,6.30
2022-08-22T14:09:14.203Z,5.20
2022-08-22T14:11:48.370Z,5.05
2022-08-22T14:14:27.807Z,8.70
2022-08-22T14:16:57.624Z,5.70
2022-08-22T14:19:52.921Z,6.28
2022-08-22T14:22:31.675Z,7.00
2022-08-22T14:25:00.952Z,6.15
2022-08-22T14:27:30.577Z,8.30
2022-08-22T14:29:59.979Z,9.75
2022-08-22T14:32:29.669Z,7.70
2022-08-22T14:35:06.074Z,7.30
2022-08-22T14:37:40.020Z,5.97
2022-08-22T14:40:09.010Z,5.30
2022-08-22T14:45:22.294Z,6.20
2022-08-22T14:48:29.492Z,7.72
2022-08-22T14:50:57.547Z,3.95
2022-08-22T14:53:29.258Z,7.22
2022-08-22T14:56:01.400Z,5.38
2022-08-22T14:58:29.259Z,8.07
2022-08-22T15:00:56.543Z,6.30
2022-08-22T15:03:28.025Z,4.32
2022-08-22T15:06:29.646Z,6.93
2022-08-22T15:08:56.450Z,6.63
2022-08-22T15:11:25.637Z,4.95
2022-08-22T15:14:06.720Z,6.95
2022-08-22T15:16:34.890Z,8.73
2022-08-22T15:19:02.059Z,4.53
2022-08-22T15:21:33.106Z,8.55
2022-08-22T15:24:11.852Z,5.40
2022-08-22T15:26:41.106Z,6.07
2022-08-22T15:29:18.832Z,4.07
2022-08-22T15:31:50.107Z,5.60
2022-08-22T15:34:21.924Z,5.18
2022-08-22T15:37:09.905Z,5.93
2022-08-22T15:40:11.986Z,5.43
2022-08-22T15:42:47.583Z,4.65
2022-08-22T15:45:34.894Z,4.80
2022-08-22T15:48:04.718Z,7.38
2022-08-22T15:50:35.065Z,6.78
2022-08-22T15:53:06.876Z,4.18
2022-08-22T15:55:34.482Z,4.95
2022-08-22T15:58:10.062Z,3.10
2022-08-22T16:00:45.161Z,4.38
2022-08-22T16:03:25.597Z,6.47
2022-08-22T16:05:55.881Z,4.25
2022-08-22T16:08:50.632Z,5.00
2022-08-22T16:11:35.803Z,5.13
2022-08-22T16:14:34.162Z,4.63
2022-08-22T16:17:29.994Z,4.68
2022-08-22T16:20:09.819Z,4.35
2022-08-22T16:23:08.083Z,5.32
2022-08-22T16:25:46.984Z,6.10
2022-08-22T16:28:41.378Z,5.13
2022-08-22T16:31:22.555Z,6.50
2022-08-22T16:33:49.267Z,4.47
2022-08-22T16:36:41.232Z,6.22
2022-08-22T16:39:31.706Z,6.00
2022-08-22T16:42:13.969Z,4.13
2022-08-22T16:44:43.514Z,5.07
2022-08-22T16:47:23.451Z,7.18
2022-08-22T16:49:54.478Z,5.25
2022-08-22T16:52:21.109Z,6.45
2022-08-22T16:54:51.799Z,7.28
2022-08-22T16:57:25.511Z,5.80
2022-08-22T17:00:23.025Z,5.63
2022-08-22T17:03:26.900Z,7.15
2022-08-22T17:06:22.517Z,6.07
2022-08-22T17:09:21.574Z,8.40
2022-08-22T17:12:06.481Z,7.20
2022-08-22T17:14:41.135Z,7.50
2022-08-22T17:17:33.256Z,10.25
2022-08-22T17:20:19.088Z,6.60
2022-08-22T17:23:00.519Z,6.00
2022-08-22T17:25:50.228Z,7.90
2022-08-22T17:28:39.562Z,7.90
2022-08-22T17:31:30.420Z,7.60
2022-08-22T17:34:16.278Z,7.03
2022-08-22T17:36:56.998Z,8.40
2022-08-22T17:39:29.163Z,8.65
2022-08-22T17:42:21.020Z,8.40
2022-08-22T17:45:05.850Z,5.05
2022-08-22T17:47:39.297Z,6.25
2022-08-22T17:50:50.079Z,8.27
2022-08-22T17:53:35.550Z,6.63
2022-08-22T17:56:24.445Z,7.43
2022-08-22T17:59:11.472Z,5.07
2022-08-22T18:01:59.876Z,7.07
2022-08-22T18:04:34.287Z,7.00
2022-08-22T18:07:27.412Z,9.38
2022-08-22T18:10:03.350Z,8.80
2022-08-22T18:13:13.102Z,6.10
2022-08-22T18:15:50.901Z,7.47
2022-08-22T18:18:31.568Z,6.88
2022-08-22T18:21:12.540Z,8.77
2022-08-22T18:23:42.335Z,6.57
2022-08-22T18:26:27.092Z,9.43
2022-08-22T18:29:11.404Z,6.75
2022-08-22T18:31:40.656Z,6.15
2022-08-22T18:34:15.604Z,7.93
2022-08-22T18:37:06.985Z,5.88
2022-08-22T18:39:58.720Z,6.57
2022-08-22T18:42:39.829Z,7.57
2022-08-22T18:45:07.155Z,9.65
2022-08-22T18:47:34.373Z,6.47
2022-08-22T18:50:24.255Z,9.18
2022-08-22T18:52:53.416Z,6.22
2022-08-22T18:55:47.698Z,5.30
2022-08-22T18:58:41.655Z,8.73
2022-08-22T19:01:35.971Z,9.48
2022-08-22T19:04:31.428Z,9.25
2022-08-22T19:07:13.482Z,7.80
2022-08-22T19:10:06.077Z,7.72
2022-08-22T19:12:56.925Z,6.80
2022-08-22T19:15:29.979Z,11.10
2022-08-22T19:18:21.438Z,12.43
2022-08-22T19:21:27.508Z,12.27
2022-08-22T19:23:54.216Z,9.98
2022-08-22T19:26:20.859Z,9.65
2022-08-22T19:28:47.695Z,8.98
2022-08-22T19:31:24.487Z,7.78
2022-08-22T19:34:26.293Z,7.10
2022-08-22T19:37:11.531Z,8.13
2022-08-22T19:40:09.196Z,12.52
2022-08-22T19:42:37.765Z,6.85
2022-08-22T19:45:17.264Z,11.27
2022-08-22T19:47:51.590Z,5.90
2022-08-22T19:50:18.213Z,8.55
2022-08-22T19:52:57.376Z,6.60
2022-08-22T19:55:36.081Z,6.53
2022-08-22T19:58:08.055Z,8.05
2022-08-22T20:00:51.579Z,6.43
2022-08-22T20:04:05.122Z,7.47
2022-08-22T20:06:43.921Z,9.38
2022-08-22T20:09:38.469Z,8.13
2022-08-22T20:12:18.823Z,8.77
2022-08-22T20:14:46.180Z,6.78
2022-08-22T20:17:25.174Z,6.93
2022-08-22T20:23:03.939Z,8.48
2022-08-22T20:25:50.529Z,5.75
2022-08-22T20:28:37.622Z,9.40
2022-08-22T20:31:09.705Z,9.23
2022-08-22T20:33:39.447Z,7.97
2022-08-22T20:36:13.874Z,6.53
2022-08-22T20:38:57.673Z,6.97
2022-08-22T20:41:46.296Z,7.50
2022-08-22T20:44:21.447Z,7.00
2022-08-22T20:47:00.760Z,6.88
2022-08-22T20:49:28.902Z,7.57
2022-08-22T20:51:56.770Z,9.18
2022-08-22T20:54:25.580Z,6.22
2022-08-22T20:56:58.388Z,6.97
2022-08-22T20:59:36.790Z,7.18
2022-08-22T21:02:08.932Z,7.53
2022-08-22T21:04:46.712Z,8.98
2022-08-22T21:07:20.430Z,5.10
2022-08-22T21:10:01.506Z,8.18
2022-08-22T21:12:28.190Z,5.90
2022-08-22T21:14:54.953Z,7.38
2022-08-22T21:17:24.485Z,7.53
2022-08-22T21:19:51.841Z,6.45
2022-08-22T21:22:25.477Z,8.10
2022-08-22T21:24:54.680Z,6.40
2022-08-22T21:27:32.364Z,9.10
2022-08-22T21:30:00.181Z,9.80
2022-08-22T21:32:32.497Z,6.88
2022-08-22T21:34:59.246Z,7.10
2022-08-22T21:37:31.204Z,7.78
2022-08-22T21:40:02.734Z,7.55
2022-08-22T21:42:32.987Z,6.75
2022-08-22T21:45:01.564Z,9.10
2022-08-22T21:47:34.142Z,6.63
2022-08-22T21:50:12.755Z,8.38
2022-08-22T21:52:55.764Z,4.80
2022-08-22T21:56:04.566Z,6.97
2022-08-22T21:58:36.103Z,9.60
2022-08-22T22:01:30.583Z,7.95
2022-08-22T22:03:58.709Z,9.75
2022-08-22T22:06:25.832Z,10.98
2022-08-22T22:08:52.591Z,11.52
2022-08-22T22:11:19.309Z,6.65
2022-08-22T22:13:45.998Z,7.55
2022-08-22T22:16:12.647Z,9.98
2022-08-22T22:18:39.458Z,11.57
2022-08-22T22:21:07.176Z,8.70
2022-08-22T22:23:33.825Z,11.40
2022-08-22T22:26:01.235Z,10.88
2022-08-22T22:28:40.510Z,7.82
2022-08-22T22:31:07.266Z,9.90
2022-08-22T22:33:39.437Z,8.13
2022-08-22T22:36:14.659Z,7.82
2022-08-22T22:38:41.914Z,10.55
2022-08-22T22:41:08.662Z,9.50
2022-08-22T22:43:35.405Z,10.13
2022-08-22T22:46:02.179Z,9.23
2022-08-22T22:48:28.881Z,13.73
2022-08-22T22:50:56.307Z,9.73
2022-08-22T22:53:37.936Z,9.18
2022-08-22T22:56:05.906Z,9.38
2022-08-22T22:58:32.666Z,9.30
2022-08-22T23:01:05.670Z,7.22
2022-08-22T23:03:32.374Z,10.07
2022-08-22T23:05:59.063Z,9.15
2022-08-22T23:08:25.701Z,7.90
2022-08-22T23:10:52.377Z,13.48
2022-08-22T23:13:19.042Z,9.98
2022-08-22T23:15:45.808Z,10.50
2022-08-22T23:18:12.468Z,9.80
2022-08-22T23:20:39.136Z,5.93
2022-08-22T23:23:05.931Z,7.43
2022-08-22T23:25:32.595Z,10.43
2022-08-22T23:27:59.388Z,10.00
2022-08-22T23:30:27.592Z,8.98
2022-08-22T23:32:54.274Z,8.80
2022-08-22T23:35:20.957Z,8.32
2022-08-22T23:37:47.652Z,16.90
2022-08-22T23:40:14.405Z,13.55
2022-08-22T23:42:41.198Z,7.35
2022-08-22T23:45:08.064Z,9.38
2022-08-22T23:47:34.752Z,8.98
2022-08-22T23:50:05.902Z,12.10
2022-08-22T23:52:33.160Z,11.50
2022-08-22T23:54:59.860Z,8.45
2022-08-22T23:57:27.756Z,10.27
2022-08-22T23:59:57.978Z,9.30
